Latest Weather Observations for Cape Naturaliste

IDW60801

Issued at 1:13 pm WST Friday 16 November 2018 (issued every 10 minutes, with the page automatically refreshed every 10 minutes)

About weather observations | Map of weather stations | Latest weather observations for WA | Other Formats
Station Details ID: 009519 Name: CAPE NATURALISTE Lat: -33.54 Lon: 115.02 Height: 109.0 m
Data from the previous 72 hours. | See also: Recent months at Cape Naturaliste
Date/Time
WST
Temp
°C
App
Temp
°C
Dew
Point
°C
Rel
Hum
%
Delta-T
°C
Wind Press
QNH
hPa
Press
MSL
hPa
Rain since
9am
mm
Dir  Spd
km/h
Gust
km/h
Spd
kts
Gust
kts
16/01:00pm 23.8 23.0 13.9 54 5.8 SW 11 19 6 10 1015.2 1015.0 0.0
16/12:30pm 24.6 24.4 13.5 50 6.5 NW 7 11 4 6 1015.4 1015.2 0.0
16/12:00pm 26.1 24.8 12.5 42 7.9 NE 11 30 6 16 1015.9 1015.7 0.0
16/11:30am 25.0 23.2 12.2 44 7.4 ENE 13 17 7 9 1016.2 1016.0 0.0
16/11:00am 25.6 23.8 12.1 43 7.8 E 13 19 7 10 1017.0 1016.8 0.0
16/10:30am 24.6 21.8 11.5 44 7.4 ESE 17 24 9 13 1017.3 1017.1 0.0
16/10:00am 24.1 21.9 12.1 47 6.9 ESE 15 19 8 10 1017.5 1017.3 0.0
16/09:30am 23.3 20.5 11.4 47 6.7 SE 17 26 9 14 1017.7 1017.5 0.0
16/09:00am 20.9 17.3 11.8 56 5.1 SE 22 30 12 16 1018.0 1017.8 0.0
16/08:30am 18.8 14.5 10.9 60 4.3 ESE 24 32 13 17 1018.3 1018.2 0.0
16/08:00am 16.5 12.3 9.7 64 3.6 ESE 22 32 12 17 1018.6 1018.5 0.0
16/07:30am 16.3 11.0 9.9 66 3.4 SE 28 43 15 23 1018.6 1018.5 0.0
16/07:00am 14.6 7.7 8.8 68 2.9 SE 35 46 19 25 1018.3 1018.2 0.0
16/06:30am 15.0 9.6 9.4 69 2.9 SE 28 37 15 20 1018.7 1018.6 0.0
16/06:00am 13.3 7.9 9.4 77 2.0 SE 28 35 15 19 1019.1 1018.9 0.0
16/05:30am 11.8 7.7 8.6 81 1.6 SE 20 26 11 14 1019.1 1018.9 0.0
16/05:00am 11.9 8.4 8.6 80 1.6 SSE 17 20 9 11 1019.2 1019.0 0.0
16/04:30am 12.3 8.2 8.6 78 1.8 SSE 20 32 11 17 1019.1 1018.9 0.0
16/04:00am 13.4 9.5 9.3 76 2.1 SE 20 28 11 15 1019.3 1019.1 0.0
16/03:56am 13.5 8.8 9.4 76 2.1 SE 24 35 13 19 1019.2 1019.0 0.0
16/03:30am 14.1 7.1 9.9 76 2.2 ESE 37 48 20 26 1018.3 1018.2 0.0
16/03:00am 13.7 7.4 9.6 76 2.1 ESE 33 43 18 23 1018.1 1017.9 0.0
16/02:30am 13.5 6.5 8.6 72 2.5 ESE 35 48 19 26 1018.0 1017.8 0.0
16/02:00am 13.8 6.7 8.2 69 2.8 ESE 35 48 19 26 1018.0 1017.8 0.0
16/01:30am 14.1 7.0 7.9 66 3.1 ESE 35 48 19 26 1018.2 1018.0 0.0
16/01:00am 14.2 7.2 8.4 68 2.9 ESE 35 46 19 25 1018.2 1018.0 0.0
16/12:30am 14.2 6.9 8.6 69 2.8 ESE 37 46 20 25 1018.2 1018.0 0.0
16/12:00am 14.4 7.2 9.0 70 2.8 ESE 37 48 20 26 1018.5 1018.4 0.0
 
Date/Time
WST
Temp
°C
App
Temp
°C
Dew
Point
°C
Rel
Hum
%
Delta-T
°C
Wind Press
QNH
hPa
Press
MSL
hPa
Rain since
9am
mm
Dir  Spd
km/h
Gust
km/h
Spd
kts
Gust
kts
15/11:44pm 14.5 7.3 9.1 70 2.8 ESE 37 56 20 30 1018.4 1018.3 0.0
15/11:30pm 14.6 6.7 9.2 70 2.8 ESE 41 52 22 28 1018.3 1018.2 0.0
15/11:18pm 14.5 6.9 9.1 70 2.8 ESE 39 57 21 31 1018.3 1018.2 0.0
15/11:00pm 14.7 6.8 9.3 70 2.8 SE 41 56 22 30 1018.0 1017.8 0.0
15/10:30pm 15.0 6.6 9.1 68 3.0 SE 43 59 23 32 1017.8 1017.6 0.0
15/10:00pm 15.4 6.7 8.6 64 3.5 SE 44 59 24 32 1017.9 1017.7 0.0
15/09:30pm 15.9 8.4 9.6 66 3.3 SE 39 56 21 30 1018.2 1018.0 0.0
15/09:00pm 16.4 9.7 9.6 64 3.6 SSE 35 50 19 27 1018.4 1018.3 0.0
15/08:53pm 16.5 10.1 9.2 62 3.8 SSE 33 52 18 28 1018.5 1018.4 0.0
15/08:30pm 16.6 9.1 9.5 63 3.7 SSE 39 54 21 29 1018.0 1017.8 0.0
15/08:00pm 16.9 9.9 9.8 63 3.7 SSE 37 50 20 27 1017.9 1017.7 0.0
15/07:30pm 17.1 10.2 10.2 64 3.7 SSE 37 52 20 28 1017.6 1017.4 0.0
15/07:00pm 17.5 11.4 9.7 60 4.1 SSE 32 46 17 25 1017.7 1017.5 0.0
15/06:30pm 18.2 12.6 10.1 59 4.3 SSE 30 41 16 22 1017.6 1017.4 0.0
15/06:00pm 20.3 16.5 11.0 55 5.1 S 22 32 12 17 1017.6 1017.4 0.0
15/05:30pm 22.2 18.5 11.6 51 6.0 S 22 35 12 19 1017.6 1017.4 0.0
15/05:00pm 23.2 19.1 11.6 48 6.5 S 24 33 13 18 1017.4 1017.2 0.0
15/04:30pm 25.2 21.8 12.4 45 7.4 SSE 22 37 12 20 1017.6 1017.4 0.0
15/04:00pm 25.4 20.8 11.2 41 8.0 SE 26 35 14 19 1017.7 1017.5 0.0
15/03:30pm 25.9 22.4 10.9 39 8.5 S 20 32 11 17 1017.8 1017.6 0.0
15/03:00pm 24.2 20.6 14.3 54 5.9 SSW 26 37 14 20 1017.8 1017.6 0.0
15/02:30pm 23.0 18.3 14.3 58 5.1 SSW 32 44 17 24 1017.8 1017.6 0.0
15/02:00pm 22.7 17.7 14.0 58 5.1 SSW 33 48 18 26 1018.0 1017.8 0.0
15/01:36pm 22.2 16.3 14.6 62 4.5 SSW 39 57 21 31 1017.9 1017.7 0.0
15/01:30pm 22.1 15.9 15.0 64 4.2 SSW 41 54 22 29 1018.0 1017.8 0.0
15/01:06pm 21.1 14.3 14.3 65 4.0 SSW 43 61 23 33 1018.0 1017.8 0.0
15/01:00pm 21.0 14.1 14.4 66 3.9 SSW 44 57 24 31 1018.0 1017.8 0.0
15/12:48pm 21.4 15.1 14.6 65 4.0 SSW 41 59 22 32 1018.0 1017.8 0.0
15/12:30pm 21.8 15.5 14.7 64 4.2 SSW 41 57 22 31 1018.2 1018.0 0.0
15/12:06pm 22.1 17.0 14.7 63 4.4 SSW 35 54 19 29 1018.5 1018.4 0.0
15/12:00pm 22.1 16.5 14.5 62 4.5 SSW 37 54 20 29 1018.5 1018.4 0.0
15/11:58am 22.1 16.8 14.2 61 4.6 SSW 35 54 19 29 1018.5 1018.4 0.0
15/11:30am 22.0 16.9 14.9 64 4.2 SSW 35 50 19 27 1018.7 1018.6 0.0
15/11:00am 22.8 19.1 14.9 61 4.7 SSW 28 41 15 22 1019.1 1018.9 0.0
15/10:30am 21.1 16.3 14.0 64 4.1 SSW 32 43 17 23 1019.4 1019.2 0.0
15/10:00am 20.9 16.6 14.3 66 3.9 SSW 30 44 16 24 1019.3 1019.1 0.0
15/09:30am 19.9 15.4 13.8 68 3.5 SSW 30 39 16 21 1019.1 1018.9 0.0
15/09:00am 19.4 15.8 13.1 67 3.6 SSW 24 33 13 18 1019.1 1018.9 0.0
15/08:30am 19.3 15.6 12.8 66 3.7 SSW 24 35 13 19 1018.8 1018.7 0.0
15/08:00am 18.8 14.5 12.1 65 3.7 SSW 26 33 14 18 1018.6 1018.5 0.0
15/07:30am 17.6 12.9 10.7 64 3.7 SSW 26 35 14 19 1018.6 1018.5 0.0
15/07:00am 17.9 14.9 10.8 63 3.8 S 17 26 9 14 1018.4 1018.3 0.0
15/06:30am 16.7 13.1 9.9 64 3.6 SSW 19 26 10 14 1018.2 1018.0 0.0
15/06:00am 15.3 13.0 10.3 72 2.6 S 13 20 7 11 1018.2 1018.0 0.0
15/05:30am 13.4 10.8 9.3 76 2.1 S 13 19 7 10 1017.8 1017.6 0.0
15/05:00am 13.1 10.1 9.2 77 2.0 SSE 15 22 8 12 1017.3 1017.1 0.0
15/04:30am 13.0 10.3 8.9 76 2.1 SSE 13 17 7 9 1017.2 1017.0 0.0
15/04:00am 13.2 10.5 8.9 75 2.2 SSE 13 17 7 9 1017.0 1016.8 0.0
15/03:30am 13.2 10.5 8.9 75 2.2 S 13 17 7 9 1016.9 1016.7 0.0
15/03:00am 13.6 10.5 8.7 72 2.5 SSW 15 17 8 9 1017.0 1016.8 0.0
15/02:30am 14.5 11.4 8.9 69 2.9 S 15 20 8 11 1016.8 1016.6 0.0
15/02:00am 14.9 11.5 9.3 69 2.9 SSE 17 26 9 14 1016.9 1016.7 0.0
15/01:30am 15.3 11.0 9.4 68 3.1 SE 22 28 12 15 1016.7 1016.5 0.0
15/01:00am 15.5 10.9 9.8 69 3.0 SE 24 32 13 17 1016.7 1016.5 0.0
15/12:30am 15.5 11.3 9.8 69 3.0 SE 22 28 12 15 1017.0 1016.8 0.0
15/12:00am 15.8 11.6 9.9 68 3.1 SE 22 30 12 16 1017.0 1016.8 0.0
 
Date/Time
WST
Temp
°C
App
Temp
°C
Dew
Point
°C
Rel
Hum
%
Delta-T
°C
Wind Press
QNH
hPa
Press
MSL
hPa
Rain since
9am
mm
Dir  Spd
km/h
Gust
km/h
Spd
kts
Gust
kts
14/11:30pm 16.2 11.8 10.3 68 3.1 SE 24 32 13 17 1017.1 1016.9 0.0
14/11:00pm 16.7 11.6 10.5 67 3.3 SE 28 37 15 20 1017.2 1017.0 0.0
14/10:30pm 16.5 12.2 10.8 69 3.1 SSE 24 33 13 18 1017.4 1017.2 0.0
14/10:00pm 16.1 13.8 10.6 70 2.9 S 13 20 7 11 1017.7 1017.5 0.0
14/09:30pm 16.3 12.7 10.4 68 3.1 SSE 20 30 11 16 1017.6 1017.4 0.0
14/09:00pm 16.8 13.1 10.0 64 3.6 S 20 26 11 14 1017.6 1017.4 0.0
14/08:30pm 17.3 13.1 9.7 61 4.0 SSE 22 35 12 19 1017.3 1017.1 0.0
14/08:00pm 15.6 12.9 10.2 70 2.8 SW 15 20 8 11 1017.3 1017.1 0.0
14/07:30pm 15.8 13.0 10.1 69 3.0 SSW 15 20 8 11 1017.1 1016.9 0.0
14/07:00pm 16.8 13.2 10.4 66 3.4 SSW 20 26 11 14 1017.0 1016.8 0.0
14/06:30pm 17.9 14.1 11.0 64 3.7 SSW 22 30 12 16 1017.0 1016.8 0.0
14/06:00pm 18.8 15.0 12.3 66 3.6 SSW 24 33 13 18 1017.0 1016.8 0.0
14/05:30pm 20.8 17.5 12.8 60 4.6 SSW 22 32 12 17 1017.0 1016.8 0.0
14/05:00pm 20.9 17.9 13.8 64 4.1 SSW 22 32 12 17 1017.1 1016.9 0.0
14/04:30pm 20.5 17.0 13.5 64 4.0 SSW 24 33 13 18 1017.4 1017.2 0.0
14/04:00pm 21.3 17.4 13.2 60 4.7 SSW 26 33 14 18 1017.8 1017.6 0.0
14/03:30pm 22.1 18.2 13.2 57 5.1 SSW 26 35 14 19 1018.0 1017.8 0.0
14/03:00pm 22.4 19.4 13.7 58 5.1 SW 22 32 12 17 1018.2 1018.0 0.0
14/02:30pm 22.1 19.3 13.2 57 5.1 SW 20 28 11 15 1018.5 1018.4 0.0
14/02:00pm 22.3 19.5 12.5 53 5.6 SSW 19 26 10 14 1018.7 1018.6 0.0
14/01:30pm 22.2 19.0 11.9 52 5.8 SW 20 30 11 16 1019.1 1018.9 0.0
14/01:00pm 22.4 18.8 11.8 51 6.0 SW 22 28 12 15 1019.5 1019.3 0.0
14/12:30pm 21.7 18.5 11.1 51 5.9 SW 19 24 10 13 1019.7 1019.5 0.0
14/12:00pm 21.5 17.8 10.3 49 6.1 SW 20 26 11 14 1020.0 1019.8 0.0
14/11:30am 21.7 19.3 9.9 47 6.4 W 13 19 7 10 1020.3 1020.1 0.0
14/11:00am 21.3 17.9 9.2 46 6.5 E 17 24 9 13 1020.3 1020.1 0.0
14/10:30am 21.3 17.7 9.9 48 6.2 E 19 24 10 13 1020.6 1020.4 0.0
14/10:00am 20.7 17.1 9.9 50 5.8 ESE 19 24 10 13 1020.7 1020.5 0.0
14/09:30am 18.6 14.6 9.1 54 5.0 ESE 20 28 11 15 1021.0 1020.8 0.0
14/09:00am 17.6 13.2 9.0 57 4.5 ESE 22 33 12 18 1021.0 1020.8 0.0
14/08:30am 16.8 11.6 8.8 59 4.1 ESE 26 35 14 19 1021.0 1020.8 0.0
14/08:00am 15.5 9.4 8.3 62 3.6 ESE 30 39 16 21 1021.1 1020.9 0.0
14/07:30am 14.7 8.9 8.0 64 3.4 ESE 28 43 15 23 1020.9 1020.7 0.0
14/07:00am 13.6 7.7 7.4 66 3.0 ESE 28 35 15 19 1020.9 1020.7 0.0
14/06:30am 12.6 6.6 7.1 69 2.7 SE 28 37 15 20 1020.7 1020.5 0.0
14/06:00am 11.7 5.6 6.8 72 2.3 SE 28 39 15 21 1020.5 1020.3 0.0
14/05:30am 10.6 4.5 6.4 75 2.0 SE 28 39 15 21 1020.3 1020.1 0.0
14/05:00am 10.5 4.0 6.5 76 1.9 SE 30 37 16 20 1019.9 1019.7 0.0
14/04:30am 10.5 4.0 6.5 76 1.9 SE 30 37 16 20 1019.9 1019.7 0.0
14/04:00am 10.3 4.2 6.6 78 1.7 SE 28 35 15 19 1019.9 1019.7 0.0
14/03:30am 10.0 3.8 6.3 78 1.7 SE 28 35 15 19 1020.0 1019.8 0.0
14/03:00am 10.0 3.9 6.5 79 1.6 SE 28 37 15 20 1019.9 1019.7 0.0
14/02:30am 9.8 4.1 6.7 81 1.5 SE 26 33 14 18 1019.8 1019.6 0.0
14/02:00am 9.7 5.1 6.4 80 1.5 SE 20 28 11 15 1020.0 1019.8 0.0
14/01:30am 10.0 5.4 6.7 80 1.6 SE 20 28 11 15 1020.2 1020.0 0.0
14/01:00am 10.2 5.9 6.9 80 1.6 SE 19 28 10 15 1020.3 1020.1 0.0
14/12:30am 10.5 6.2 6.8 78 1.8 SE 19 28 10 15 1020.3 1020.1 0.0
14/12:00am 10.8 6.5 6.9 77 1.9 SSE 19 24 10 13 1020.5 1020.3 0.0
 
Date/Time
WST
Temp
°C
App
Temp
°C
Dew
Point
°C
Rel
Hum
%
Delta-T
°C
Wind Press
QNH
hPa
Press
MSL
hPa
Rain since
9am
mm
Dir  Spd
km/h
Gust
km/h
Spd
kts
Gust
kts
13/11:30pm 11.1 6.8 7.2 77 1.9 SSE 19 28 10 15 1020.5 1020.3 0.0
13/11:00pm 11.3 6.9 7.2 76 2.0 S 20 33 11 18 1020.5 1020.3 0.0
13/10:30pm 11.5 6.7 7.4 76 2.0 S 22 28 12 15 1020.6 1020.4 0.0
13/10:00pm 11.8 7.0 7.3 74 2.2 S 22 33 12 18 1020.9 1020.7 0.0
13/09:30pm 12.0 6.9 7.5 74 2.2 S 24 30 13 16 1020.8 1020.6 0.0
13/09:00pm 12.4 7.3 7.5 72 2.4 S 24 33 13 18 1020.6 1020.4 0.0
13/08:30pm 12.7 7.6 7.6 71 2.5 S 24 33 13 18 1020.4 1020.2 0.0
13/08:00pm 13.1 8.1 8.0 71 2.5 S 24 33 13 18 1019.9 1019.7 0.0
13/07:30pm 13.8 9.3 8.6 71 2.6 S 22 35 12 19 1019.5 1019.3 0.0
13/07:00pm 14.9 9.2 9.9 72 2.6 SSW 30 39 16 21 1019.1 1018.9 0.0
13/06:30pm 15.6 8.6 9.9 69 3.0 SSW 37 50 20 27 1018.7 1018.6 0.0
13/06:00pm 16.4 9.4 10.0 66 3.4 SSW 37 50 20 27 1018.4 1018.3 0.0
13/05:48pm 16.7 10.1 9.9 64 3.6 SSW 35 54 19 29 1018.3 1018.2 0.0
13/05:30pm 17.1 9.9 10.5 65 3.5 SSW 39 50 21 27 1018.2 1018.0 0.0
13/05:00pm 17.6 10.4 10.7 64 3.7 SSW 39 52 21 28 1018.0 1017.8 0.0
13/04:30pm 18.3 12.0 10.9 62 4.0 SSW 35 46 19 25 1017.9 1017.7 0.0
13/04:00pm 18.7 12.1 11.3 62 4.1 SSW 37 48 20 26 1017.9 1017.7 0.0
13/03:30pm 19.1 13.3 11.4 61 4.2 SSW 33 43 18 23 1017.8 1017.6 0.0
13/03:00pm 19.6 13.8 11.6 60 4.4 SSW 33 44 18 24 1018.1 1017.9 0.0
13/02:30pm 20.2 14.5 11.7 58 4.7 SSW 33 44 18 24 1018.3 1018.2 0.0
13/02:00pm 20.1 13.3 11.8 59 4.6 SSW 39 52 21 28 1018.4 1018.3 0.0
13/01:30pm 20.6 15.2 12.3 59 4.7 SSW 32 43 17 23 1018.5 1018.4 0.0

Other Formats:

Comma delimited format used in spreadsheet applications
http://www.bom.gov.au/fwo/IDW60801/IDW60801.94600.axf

JavaScript Object Notation format (JSON) in row-major order
http://www.bom.gov.au/fwo/IDW60801/IDW60801.94600.json